Time,TemperatureF,DewpointF,PressureIn,WindDirection,WindDirectionDegrees,WindSpeedMPH,WindSpeedGustMPH,Humidity,HourlyPrecipIn,Conditions,Clouds,dailyrainin,SoftwareType,DateUTC
2013-09-19 00:05:00,75.3,72.5,29.93,East,93,0.0,0.0,91,0.00,,,0.00,Wunderground v.1.15,2013-09-19 04:05:00,
2013-09-19 00:10:00,75.3,72.5,29.93,East,81,0.0,3.0,91,0.00,,,0.00,Wunderground v.1.15,2013-09-19 04:10:00,
2013-09-19 00:20:00,75.3,72.5,29.93,ENE,78,0.0,3.0,91,0.00,,,0.00,Wunderground v.1.15,2013-09-19 04:20:00,
2013-09-19 00:25:00,75.3,72.5,29.92,NE,53,0.0,3.0,91,0.00,,,0.00,Wunderground v.1.15,2013-09-19 04:25:00,
2013-09-19 00:35:00,75.3,72.8,29.92,NE,46,0.0,3.0,92,0.00,,,0.00,Wunderground v.1.15,2013-09-19 04:35:00,
2013-09-19 00:45:00,75.1,72.6,29.92,ENE,70,1.0,3.0,92,0.00,,,0.00,Wunderground v.1.15,2013-09-19 04:45:00,
2013-09-19 00:55:00,75.1,72.6,29.91,East,86,0.0,3.0,92,0.00,,,0.00,Wunderground v.1.15,2013-09-19 04:55:00,
2013-09-19 01:05:00,75.1,72.9,29.91,ENE,73,0.0,3.0,93,0.00,,,0.00,Wunderground v.1.15,2013-09-19 05:05:00,
2013-09-19 01:10:00,75.1,72.9,29.91,ENE,71,0.0,3.0,93,0.00,,,0.00,Wunderground v.1.15,2013-09-19 05:10:00,
2013-09-19 01:20:00,74.9,73.1,29.91,ENE,72,0.0,3.0,94,0.00,,,0.00,Wunderground v.1.15,2013-09-19 05:20:00,
2013-09-19 01:30:00,74.9,73.1,29.91,NE,41,1.0,1.0,94,0.00,,,0.00,Wunderground v.1.15,2013-09-19 05:30:00,
2013-09-19 01:40:00,74.9,73.1,29.90,ENE,65,1.0,8.0,94,0.00,,,0.00,Wunderground v.1.15,2013-09-19 05:40:00,
2013-09-19 01:45:00,74.9,73.1,29.90,ENE,66,2.0,8.0,94,0.00,,,0.00,Wunderground v.1.15,2013-09-19 05:45:00,
2013-09-19 01:55:00,74.9,73.1,29.90,ENE,60,0.0,3.0,94,0.00,,,0.00,Wunderground v.1.15,2013-09-19 05:55:00,
2013-09-19 02:05:00,74.9,73.1,29.90,ESE,108,0.0,3.0,94,0.00,,,0.00,Wunderground v.1.15,2013-09-19 06:05:00,
2013-09-19 02:10:00,74.9,73.1,29.90,East,89,1.0,1.0,94,0.00,,,0.00,Wunderground v.1.15,2013-09-19 06:10:00,
2013-09-19 02:20:00,74.9,73.1,29.90,ENE,77,0.0,3.0,94,0.00,,,0.00,Wunderground v.1.15,2013-09-19 06:20:00,
2013-09-19 02:30:00,74.9,73.1,29.91,ENE,70,0.0,3.0,94,0.00,,,0.00,Wunderground v.1.15,2013-09-19 06:30:00,
2013-09-19 02:40:00,74.7,72.9,29.90,ENE,61,0.0,3.0,94,0.00,,,0.00,Wunderground v.1.15,2013-09-19 06:40:00,
2013-09-19 02:50:00,74.7,72.9,29.90,ENE,58,1.0,1.0,94,0.00,,,0.00,Wunderground v.1.15,2013-09-19 06:50:00,
2013-09-19 02:55:00,74.7,72.9,29.89,ENE,72,1.0,3.0,94,0.00,,,0.00,Wunderground v.1.15,2013-09-19 06:55:00,
2013-09-19 03:05:00,74.6,72.8,29.89,NE,53,0.0,3.0,94,0.00,,,0.00,Wunderground v.1.15,2013-09-19 07:05:00,
2013-09-19 03:15:00,74.4,72.6,29.89,NE,44,2.0,7.0,94,0.00,,,0.00,Wunderground v.1.15,2013-09-19 07:15:00,
2013-09-19 03:25:00,74.4,72.6,29.88,NE,55,2.0,5.0,94,0.00,,,0.00,Wunderground v.1.15,2013-09-19 07:25:00,
2013-09-19 03:30:00,74.4,72.6,29.88,ENE,73,2.0,2.0,94,0.00,,,0.00,Wunderground v.1.15,2013-09-19 07:30:00,
2013-09-19 03:40:00,74.2,72.4,29.88,NNE,17,0.0,5.0,94,0.00,,,0.00,Wunderground v.1.15,2013-09-19 07:40:00,
2013-09-19 03:50:00,74.2,72.4,29.88,ENE,61,1.0,5.0,94,0.00,,,0.00,Wunderground v.1.15,2013-09-19 07:50:00,
2013-09-19 04:00:00,74.0,71.8,29.88,ENE,60,4.0,4.0,93,0.00,,,0.00,Wunderground v.1.15,2013-09-19 08:00:00,
2013-09-19 04:05:00,74.0,71.8,29.88,NE,51,2.0,5.0,93,0.00,,,0.00,Wunderground v.1.15,2013-09-19 08:05:00,
2013-09-19 04:15:00,74.0,71.8,29.87,ENE,75,2.0,5.0,93,0.00,,,0.00,Wunderground v.1.15,2013-09-19 08:15:00,
2013-09-19 04:25:00,73.9,71.7,29.87,ENE,58,2.0,11.0,93,0.00,,,0.00,Wunderground v.1.15,2013-09-19 08:25:00,
2013-09-19 04:35:00,73.9,71.4,29.87,NE,40,2.0,5.0,92,0.00,,,0.00,Wunderground v.1.15,2013-09-19 08:35:00,
2013-09-19 04:40:00,73.9,71.4,29.87,NNE,30,1.0,1.0,92,0.00,,,0.00,Wunderground v.1.15,2013-09-19 08:40:00,
2013-09-19 04:50:00,73.7,71.2,29.87,NE,46,2.0,2.0,92,0.00,,,0.00,Wunderground v.1.15,2013-09-19 08:50:00,
2013-09-19 05:00:00,73.7,71.2,29.88,ENE,73,1.0,1.0,92,0.00,,,0.00,Wunderground v.1.15,2013-09-19 09:00:00,
2013-09-19 05:05:00,73.7,71.2,29.88,NE,47,0.0,5.0,92,0.00,,,0.00,Wunderground v.1.15,2013-09-19 09:05:00,
2013-09-19 05:15:00,73.7,71.2,29.88,ENE,57,1.0,5.0,92,0.00,,,0.00,Wunderground v.1.15,2013-09-19 09:15:00,
2013-09-19 05:25:00,73.7,71.2,29.88,ENE,64,1.0,5.0,92,0.00,,,0.00,Wunderground v.1.15,2013-09-19 09:25:00,
2013-09-19 05:30:00,73.7,71.2,29.88,NE,44,0.0,5.0,92,0.00,,,0.00,Wunderground v.1.15,2013-09-19 09:30:00,
2013-09-19 05:35:00,73.7,71.2,29.88,ENE,57,1.0,5.0,92,0.00,,,0.00,Wunderground v.1.15,2013-09-19 09:35:00,
2013-09-19 05:45:00,73.7,71.2,29.88,ENE,59,0.0,5.0,92,0.00,,,0.00,Wunderground v.1.15,2013-09-19 09:45:00,
2013-09-19 05:55:00,73.5,71.0,29.89,East,85,0.0,5.0,92,0.00,,,0.00,Wunderground v.1.15,2013-09-19 09:55:00,
2013-09-19 06:05:00,73.5,71.0,29.89,ENE,71,0.0,5.0,92,0.00,,,0.00,Wunderground v.1.15,2013-09-19 10:05:00,
2013-09-19 06:10:00,73.5,71.0,29.89,East,92,0.0,6.0,92,0.00,,,0.00,Wunderground v.1.15,2013-09-19 10:10:00,
2013-09-19 06:20:00,73.5,71.0,29.89,East,82,0.0,6.0,92,0.00,,,0.00,Wunderground v.1.15,2013-09-19 10:20:00,
2013-09-19 06:30:00,73.5,71.0,29.89,ENE,72,0.0,6.0,92,0.00,,,0.00,Wunderground v.1.15,2013-09-19 10:30:00,
2013-09-19 06:40:00,73.5,71.0,29.89,NE,35,2.0,2.0,92,0.00,,,0.00,Wunderground v.1.15,2013-09-19 10:40:00,
2013-09-19 06:50:00,73.5,71.0,29.89,ENE,68,0.0,6.0,92,0.00,,,0.00,Wunderground v.1.15,2013-09-19 10:50:00,
2013-09-19 06:55:00,73.5,71.0,29.89,ENE,58,0.0,6.0,92,0.00,,,0.00,Wunderground v.1.15,2013-09-19 10:55:00,
2013-09-19 07:05:00,73.5,71.0,29.89,East,83,0.0,6.0,92,0.00,,,0.00,Wunderground v.1.15,2013-09-19 11:05:00,
2013-09-19 07:15:00,73.7,71.2,29.90,East,80,0.0,6.0,92,0.00,,,0.00,Wunderground v.1.15,2013-09-19 11:15:00,
2013-09-19 07:20:00,73.7,71.2,29.90,ENE,66,1.0,1.0,92,0.00,,,0.00,Wunderground v.1.15,2013-09-19 11:20:00,
2013-09-19 07:30:00,73.7,71.2,29.90,ENE,58,0.0,6.0,92,0.00,,,0.00,Wunderground v.1.15,2013-09-19 11:30:00,
2013-09-19 07:40:00,73.7,71.5,29.90,ENE,72,0.0,6.0,93,0.00,,,0.00,Wunderground v.1.15,2013-09-19 11:40:00,
2013-09-19 07:50:00,73.9,71.7,29.90,East,93,0.0,6.0,93,0.00,,,0.00,Wunderground v.1.15,2013-09-19 11:50:00,
2013-09-19 07:55:00,74.0,71.8,29.90,East,90,1.0,6.0,93,0.00,,,0.00,Wunderground v.1.15,2013-09-19 11:55:00,
2013-09-19 08:05:00,74.2,72.0,29.90,NE,41,0.0,6.0,93,0.00,,,0.00,Wunderground v.1.15,2013-09-19 12:05:00,
2013-09-19 08:15:00,74.4,72.2,29.91,ENE,68,0.0,6.0,93,0.00,,,0.00,Wunderground v.1.15,2013-09-19 12:15:00,
2013-09-19 08:20:00,74.6,72.4,29.91,ENE,75,0.0,6.0,93,0.00,,,0.00,Wunderground v.1.15,2013-09-19 12:20:00,
2013-09-19 08:30:00,75.4,72.9,29.91,NE,46,1.0,1.0,92,0.00,,,0.00,Wunderground v.1.15,2013-09-19 12:30:00,
2013-09-19 08:35:00,75.6,72.8,29.91,East,86,1.0,6.0,91,0.00,,,0.00,Wunderground v.1.15,2013-09-19 12:35:00,
2013-09-19 08:45:00,76.5,73.3,29.91,NE,53,0.0,6.0,90,0.00,,,0.00,Wunderground v.1.15,2013-09-19 12:45:00,
2013-09-19 08:55:00,76.7,73.2,29.92,ENE,77,2.0,10.0,89,0.00,,,0.00,Wunderground v.1.15,2013-09-19 12:55:00,
2013-09-19 09:00:00,76.8,73.6,29.92,NNE,30,2.0,2.0,90,0.00,,,0.00,Wunderground v.1.15,2013-09-19 13:00:00,
2013-09-19 09:10:00,77.0,73.5,29.92,NE,34,2.0,13.0,89,0.00,,,0.00,Wunderground v.1.15,2013-09-19 13:10:00,
2013-09-19 09:20:00,77.2,73.7,29.92,ENE,65,2.0,2.0,89,0.00,,,0.00,Wunderground v.1.15,2013-09-19 13:20:00,
2013-09-19 09:30:00,77.6,74.1,29.92,ESE,121,0.0,13.0,89,0.00,,,0.00,Wunderground v.1.15,2013-09-19 13:30:00,
2013-09-19 09:35:00,77.9,74.1,29.92,ENE,64,1.0,13.0,88,0.00,,,0.00,Wunderground v.1.15,2013-09-19 13:35:00,
2013-09-19 09:45:00,79.2,74.3,29.92,NE,44,2.0,14.0,85,0.00,,,0.00,Wunderground v.1.15,2013-09-19 13:45:00,
2013-09-19 09:55:00,79.4,74.1,29.93,East,91,2.0,11.0,84,0.00,,,0.00,Wunderground v.1.15,2013-09-19 13:55:00,
2013-09-19 10:05:00,80.1,74.5,29.93,East,86,2.0,13.0,83,0.00,,,0.00,Wunderground v.1.15,2013-09-19 14:05:00,
2013-09-19 10:10:00,80.3,74.3,29.94,East,80,1.0,1.0,82,0.00,,,0.00,Wunderground v.1.15,2013-09-19 14:10:00,
2013-09-19 10:20:00,80.7,74.0,29.94,ENE,57,3.0,13.0,80,0.00,,,0.00,Wunderground v.1.15,2013-09-19 14:20:00,
2013-09-19 10:25:00,80.7,74.3,29.94,East,90,4.0,13.0,81,0.00,,,0.00,Wunderground v.1.15,2013-09-19 14:25:00,
2013-09-19 10:35:00,81.4,73.9,29.94,ESE,107,3.0,13.0,78,0.00,,,0.00,Wunderground v.1.15,2013-09-19 14:35:00,
2013-09-19 10:45:00,82.0,74.5,29.94,East,84,4.0,13.0,78,0.00,,,0.00,Wunderground v.1.15,2013-09-19 14:45:00,
2013-09-19 10:55:00,82.2,74.3,29.95,ESE,121,6.0,13.0,77,0.00,,,0.00,Wunderground v.1.15,2013-09-19 14:55:00,
2013-09-19 11:00:00,82.2,74.3,29.95,SE,124,8.0,8.0,77,0.00,,,0.00,Wunderground v.1.15,2013-09-19 15:00:00,
2013-09-19 11:10:00,82.6,73.9,29.95,SE,125,7.0,14.0,75,0.00,,,0.00,Wunderground v.1.15,2013-09-19 15:10:00,
2013-09-19 11:20:00,84.1,74.9,29.95,SE,146,5.0,13.0,74,0.00,,,0.00,Wunderground v.1.15,2013-09-19 15:20:00,
2013-09-19 11:25:00,84.3,74.3,29.95,NE,50,6.0,13.0,72,0.00,,,0.00,Wunderground v.1.15,2013-09-19 15:25:00,
2013-09-19 11:35:00,84.5,74.5,29.95,East,91,8.0,13.0,72,0.00,,,0.00,Wunderground v.1.15,2013-09-19 15:35:00,
2013-09-19 11:45:00,84.0,74.0,29.95,East,99,9.0,18.0,72,0.00,,,0.00,Wunderground v.1.15,2013-09-19 15:45:00,
2013-09-19 11:50:00,83.8,73.8,29.95,ESE,120,7.0,7.0,72,0.00,,,0.00,Wunderground v.1.15,2013-09-19 15:50:00,
2013-09-19 12:00:00,83.6,73.6,29.95,East,95,8.0,13.0,72,0.00,,,0.00,Wunderground v.1.15,2013-09-19 16:00:00,
2013-09-19 12:10:00,83.6,74.0,29.95,East,94,5.0,15.0,73,0.00,,,0.00,Wunderground v.1.15,2013-09-19 16:10:00,
2013-09-19 12:20:00,83.8,73.0,29.95,ESE,103,6.0,6.0,70,0.00,,,0.00,Wunderground v.1.15,2013-09-19 16:20:00,
2013-09-19 12:25:00,84.5,73.2,29.94,East,99,6.0,9.0,69,0.00,,,0.00,Wunderground v.1.15,2013-09-19 16:25:00,
2013-09-19 12:35:00,85.1,73.8,29.94,ESE,112,8.0,15.0,69,0.00,,,0.00,Wunderground v.1.15,2013-09-19 16:35:00,
2013-09-19 12:50:00,85.7,73.0,29.93,East,84,5.0,15.0,66,0.00,,,0.00,Wunderground v.1.15,2013-09-19 16:50:00,
2013-09-19 12:55:00,86.1,73.4,29.92,ENE,73,7.0,15.0,66,0.00,,,0.00,Wunderground v.1.15,2013-09-19 16:55:00,
2013-09-19 13:05:00,85.7,73.5,29.92,East,79,4.0,15.0,67,0.00,,,0.00,Wunderground v.1.15,2013-09-19 17:05:00,
2013-09-19 13:10:00,86.1,73.4,29.92,NNE,13,3.0,3.0,66,0.00,,,0.00,Wunderground v.1.15,2013-09-19 17:10:00,
2013-09-19 13:20:00,86.7,72.6,29.92,East,82,4.0,4.0,63,0.00,,,0.00,Wunderground v.1.15,2013-09-19 17:20:00,
2013-09-19 13:30:00,86.5,71.9,29.91,East,91,1.0,1.0,62,0.00,,,0.00,Wunderground v.1.15,2013-09-19 17:30:00,
2013-09-19 13:35:00,87.4,73.3,29.91,North,358,2.0,2.0,63,0.00,,,0.00,Wunderground v.1.15,2013-09-19 17:35:00,
2013-09-19 13:45:00,86.5,72.4,29.91,East,81,3.0,12.0,63,0.00,,,0.00,Wunderground v.1.15,2013-09-19 17:45:00,
2013-09-19 13:50:00,86.1,72.0,29.91,East,98,4.0,4.0,63,0.00,,,0.00,Wunderground v.1.15,2013-09-19 17:50:00,
2013-09-19 14:00:00,86.1,73.4,29.90,ENE,75,2.0,15.0,66,0.00,,,0.00,Wunderground v.1.15,2013-09-19 18:00:00,
2013-09-19 14:10:00,86.1,74.3,29.89,East,85,3.0,3.0,68,0.00,,,0.00,Wunderground v.1.15,2013-09-19 18:10:00,
2013-09-19 14:20:00,86.7,73.5,29.89,NNE,29,3.0,3.0,65,0.00,,,0.00,Wunderground v.1.15,2013-09-19 18:20:00,
2013-09-19 14:25:00,87.8,73.6,29.89,North,11,3.0,15.0,63,0.00,,,0.00,Wunderground v.1.15,2013-09-19 18:25:00,
2013-09-19 14:35:00,87.8,72.2,29.89,NE,46,2.0,15.0,60,0.00,,,0.00,Wunderground v.1.15,2013-09-19 18:35:00,
2013-09-19 14:40:00,88.2,73.0,29.88,NE,51,2.0,2.0,61,0.00,,,0.00,Wunderground v.1.15,2013-09-19 18:40:00,
2013-09-19 14:50:00,88.2,72.6,29.88,NE,53,2.0,2.0,60,0.00,,,0.00,Wunderground v.1.15,2013-09-19 18:50:00,
2013-09-19 15:00:00,88.6,71.9,29.88,NE,50,1.0,1.0,58,0.00,,,0.00,Wunderground v.1.15,2013-09-19 19:00:00,
2013-09-19 15:05:00,88.6,72.4,29.88,NNE,30,1.0,15.0,59,0.00,,,0.00,Wunderground v.1.15,2013-09-19 19:05:00,
2013-09-19 15:15:00,88.8,72.1,29.88,NE,37,3.0,19.0,58,0.00,,,0.00,Wunderground v.1.15,2013-09-19 19:15:00,
2013-09-19 15:20:00,89.0,72.3,29.88,SE,143,2.0,2.0,58,0.00,,,0.00,Wunderground v.1.15,2013-09-19 19:20:00,
2013-09-19 15:30:00,89.3,72.1,29.87,North,11,1.0,1.0,57,0.00,,,0.00,Wunderground v.1.15,2013-09-19 19:30:00,
2013-09-19 15:40:00,88.8,72.6,29.87,ENE,60,2.0,2.0,59,0.00,,,0.00,Wunderground v.1.15,2013-09-19 19:40:00,
2013-09-19 15:45:00,88.0,73.3,29.87,ENE,67,3.0,12.0,62,0.00,,,0.00,Wunderground v.1.15,2013-09-19 19:45:00,
2013-09-19 15:55:00,82.6,73.1,29.88,NE,46,7.0,7.0,73,0.86,,,0.02,Wunderground v.1.15,2013-09-19 19:55:00,
2013-09-19 16:05:00,78.6,73.7,29.88,ENE,76,2.0,19.0,85,0.14,,,0.11,Wunderground v.1.15,2013-09-19 20:05:00,
2013-09-19 16:10:00,78.6,74.7,29.87,East,82,0.0,19.0,88,0.07,,,0.11,Wunderground v.1.15,2013-09-19 20:10:00,
2013-09-19 16:20:00,79.2,75.7,29.87,East,82,0.0,19.0,89,0.00,,,0.11,Wunderground v.1.15,2013-09-19 20:20:00,
2013-09-19 16:25:00,79.4,76.2,29.88,East,82,0.0,19.0,90,0.00,,,0.11,Wunderground v.1.15,2013-09-19 20:25:00,
2013-09-19 16:35:00,79.8,76.9,29.88,East,82,0.0,19.0,91,0.00,,,0.11,Wunderground v.1.15,2013-09-19 20:35:00,
2013-09-19 16:45:00,80.5,77.0,29.88,ENE,64,0.0,19.0,89,0.00,,,0.11,Wunderground v.1.15,2013-09-19 20:45:00,
2013-09-19 16:50:00,81.4,77.5,29.88,ENE,65,0.0,19.0,88,0.00,,,0.11,Wunderground v.1.15,2013-09-19 20:50:00,
2013-09-19 17:00:00,82.0,76.0,29.88,East,99,5.0,5.0,82,0.00,,,0.12,Wunderground v.1.15,2013-09-19 21:00:00,
2013-09-19 17:05:00,82.4,75.6,29.88,ENE,65,3.0,19.0,80,0.00,,,0.12,Wunderground v.1.15,2013-09-19 21:05:00,
2013-09-19 17:15:00,82.6,73.9,29.88,ENE,65,0.0,19.0,75,0.00,,,0.12,Wunderground v.1.15,2013-09-19 21:15:00,
2013-09-19 17:25:00,82.6,73.5,29.88,ENE,60,1.0,19.0,74,0.00,,,0.12,Wunderground v.1.15,2013-09-19 21:25:00,
2013-09-19 17:30:00,82.8,73.3,29.88,East,94,2.0,2.0,73,0.00,,,0.12,Wunderground v.1.15,2013-09-19 21:30:00,
2013-09-19 17:40:00,82.8,73.7,29.89,ESE,117,0.0,19.0,74,0.00,,,0.12,Wunderground v.1.15,2013-09-19 21:40:00,
2013-09-19 17:45:00,83.0,73.9,29.89,ENE,74,0.0,19.0,74,0.00,,,0.12,Wunderground v.1.15,2013-09-19 21:45:00,
2013-09-19 17:55:00,82.8,73.3,29.88,ESE,107,1.0,19.0,73,0.00,,,0.12,Wunderground v.1.15,2013-09-19 21:55:00,
2013-09-19 18:05:00,82.4,72.9,29.88,East,82,1.0,19.0,73,0.00,,,0.12,Wunderground v.1.15,2013-09-19 22:05:00,
2013-09-19 18:15:00,82.2,72.3,29.89,ESE,106,0.0,15.0,72,0.00,,,0.12,Wunderground v.1.15,2013-09-19 22:15:00,
2013-09-19 18:25:00,82.0,72.1,29.89,ESE,102,0.0,15.0,72,0.00,,,0.12,Wunderground v.1.15,2013-09-19 22:25:00,
2013-09-19 18:30:00,81.8,73.9,29.89,ESE,121,4.0,15.0,77,0.00,,,0.12,Wunderground v.1.15,2013-09-19 22:30:00,
2013-09-19 18:40:00,80.7,74.3,29.89,SSE,155,5.0,5.0,81,0.00,,,0.12,Wunderground v.1.15,2013-09-19 22:40:00,
2013-09-19 18:50:00,80.1,74.1,29.89,SSE,149,2.0,15.0,82,0.00,,,0.12,Wunderground v.1.15,2013-09-19 22:50:00,
2013-09-19 18:55:00,80.1,74.5,29.89,SSE,158,4.0,15.0,83,0.00,,,0.12,Wunderground v.1.15,2013-09-19 22:55:00,
2013-09-19 19:05:00,79.9,74.3,29.89,SSE,153,0.0,15.0,83,0.00,,,0.12,Wunderground v.1.15,2013-09-19 23:05:00,
2013-09-19 19:15:00,79.9,74.3,29.90,SSE,153,0.0,15.0,83,0.00,,,0.12,Wunderground v.1.15,2013-09-19 23:15:00,
2013-09-19 19:20:00,79.8,74.2,29.90,South,186,0.0,15.0,83,0.00,,,0.12,Wunderground v.1.15,2013-09-19 23:20:00,
2013-09-19 19:30:00,79.6,73.3,29.91,SSE,168,0.0,15.0,81,0.00,,,0.12,Wunderground v.1.15,2013-09-19 23:30:00,
2013-09-19 19:40:00,79.4,72.7,29.91,SSE,153,0.0,15.0,80,0.00,,,0.12,Wunderground v.1.15,2013-09-19 23:40:00,
2013-09-19 19:50:00,79.2,72.9,29.91,SE,141,0.0,15.0,81,0.00,,,0.12,Wunderground v.1.15,2013-09-19 23:50:00,
2013-09-19 19:55:00,79.2,72.9,29.90,SE,141,0.0,15.0,81,0.00,,,0.12,Wunderground v.1.15,2013-09-19 23:55:00,
2013-09-19 20:05:00,79.0,72.7,29.90,SSE,162,0.0,15.0,81,0.00,,,0.12,Wunderground v.1.15,2013-09-20 00:05:00,
2013-09-19 20:15:00,78.8,72.5,29.90,SSE,158,0.0,15.0,81,0.00,,,0.12,Wunderground v.1.15,2013-09-20 00:15:00,
2013-09-19 20:25:00,78.8,72.5,29.90,SSE,155,0.0,15.0,81,0.00,,,0.12,Wunderground v.1.15,2013-09-20 00:25:00,
2013-09-19 20:30:00,78.8,72.5,29.90,SSE,162,0.0,15.0,81,0.00,,,0.12,Wunderground v.1.15,2013-09-20 00:30:00,
2013-09-19 20:40:00,78.8,72.8,29.91,SSE,162,0.0,15.0,82,0.00,,,0.12,Wunderground v.1.15,2013-09-20 00:40:00,
2013-09-19 20:50:00,78.6,72.6,29.91,SSE,162,0.0,15.0,82,0.00,,,0.12,Wunderground v.1.15,2013-09-20 00:50:00,
2013-09-19 21:00:00,78.6,73.0,29.91,East,99,0.0,15.0,83,0.00,,,0.12,Wunderground v.1.15,2013-09-20 01:00:00,
2013-09-19 21:10:00,78.3,72.7,29.91,SE,129,0.0,0.0,83,0.00,,,0.12,Wunderground v.1.15,2013-09-20 01:10:00,
2013-09-19 21:15:00,78.3,72.7,29.91,SE,131,0.0,0.0,83,0.00,,,0.12,Wunderground v.1.15,2013-09-20 01:15:00,
2013-09-19 21:25:00,78.1,72.9,29.91,SE,132,0.0,0.0,84,0.00,,,0.12,Wunderground v.1.15,2013-09-20 01:25:00,
2013-09-19 21:35:00,77.9,72.7,29.91,SE,129,0.0,0.0,84,0.00,,,0.12,Wunderground v.1.15,2013-09-20 01:35:00,
2013-09-19 21:45:00,77.9,72.7,29.92,SE,128,0.0,0.0,84,0.00,,,0.12,Wunderground v.1.15,2013-09-20 01:45:00,
2013-09-19 21:50:00,78.1,73.2,29.92,SE,128,0.0,0.0,85,0.00,,,0.12,Wunderground v.1.15,2013-09-20 01:50:00,
2013-09-19 22:00:00,77.7,72.8,29.92,SE,128,0.0,0.0,85,0.00,,,0.12,Wunderground v.1.15,2013-09-20 02:00:00,
2013-09-19 22:10:00,77.6,73.4,29.92,SE,128,0.0,0.0,87,0.00,,,0.12,Wunderground v.1.15,2013-09-20 02:10:00,
2013-09-19 22:20:00,77.4,73.2,29.92,ENE,65,0.0,0.0,87,0.00,,,0.12,Wunderground v.1.15,2013-09-20 02:20:00,
2013-09-19 22:30:00,77.4,73.2,29.93,ENE,70,1.0,9.0,87,0.00,,,0.12,Wunderground v.1.15,2013-09-20 02:30:00,
2013-09-19 22:35:00,77.2,73.0,29.93,East,101,3.0,9.0,87,0.00,,,0.12,Wunderground v.1.15,2013-09-20 02:35:00,
2013-09-19 22:45:00,75.6,72.1,29.93,East,80,3.0,10.0,89,0.69,,,0.23,Wunderground v.1.15,2013-09-20 02:45:00,
2013-09-19 22:55:00,75.1,72.6,29.92,ESE,103,2.0,2.0,92,0.30,,,0.32,Wunderground v.1.15,2013-09-20 02:55:00,
2013-09-19 23:05:00,75.3,73.5,29.92,East,84,0.0,1.0,94,0.08,,,0.33,Wunderground v.1.15,2013-09-20 03:05:00,
2013-09-19 23:10:00,75.4,73.9,29.92,NE,53,0.0,0.0,95,0.05,,,0.33,Wunderground v.1.15,2013-09-20 03:10:00,
2013-09-19 23:20:00,75.3,73.8,29.92,NE,36,0.0,0.0,95,0.00,,,0.33,Wunderground v.1.15,2013-09-20 03:20:00,
2013-09-19 23:30:00,75.3,74.1,29.94,ENE,69,0.0,0.0,96,0.00,,,0.33,Wunderground v.1.15,2013-09-20 03:30:00,
2013-09-19 23:35:00,75.1,73.9,29.94,ENE,72,0.0,0.0,96,0.00,,,0.33,Wunderground v.1.15,2013-09-20 03:35:00,
2013-09-19 23:45:00,75.3,74.1,29.93,East,95,0.0,0.0,96,0.00,,,0.34,Wunderground v.1.15,2013-09-20 03:45:00,
2013-09-19 23:55:00,75.3,74.1,29.93,ESE,102,0.0,0.0,96,0.00,,,0.34,Wunderground v.1.15,2013-09-20 03:55:00,